Time;durP1;ratioP1;P1;durP2;ratioP2;P2;SDS_P1;SDS_P2;PMS_P1;PMS_P2;Temp;Humidity;BMP_temperature;BMP_pressure;BME280_temperature;BME280_humidity;BME280_pressure;Samples;Min_cycle;Max_cycle;Signal;HPM_P1;HPM_P2
2023/12/16 00:02:01;;;;;;;50.40;26.92;;;;;;;;;;4993458;28;20022;-64
2023/12/16 00:04:27;;;;;;;49.00;28.52;;;;;;;;;;5010680;28;20038;-63
2023/12/16 00:06:52;;;;;;;52.55;29.65;;;;;;;;;;5013618;28;20041;-63
2023/12/16 00:09:19;;;;;;;46.72;25.13;;;;;;;;;;5013387;28;20901;-64
2023/12/16 00:11:44;;;;;;;49.80;27.17;;;;;;;;;;5016511;28;20034;-63
2023/12/16 00:14:09;;;;;;;47.30;26.30;;;;;;;;;;5015907;28;20484;-63
2023/12/16 00:16:35;;;;;;;44.22;25.73;;;;;;;;;;5013742;28;20092;-63
2023/12/16 00:19:00;;;;;;;54.67;28.92;;;;;;;;;;5013903;28;20053;-63
2023/12/16 00:21:26;;;;;;;53.97;29.08;;;;;;;;;;5015143;28;20109;-63
2023/12/16 00:23:51;;;;;;;47.63;26.77;;;;;;;;;;5014963;28;20088;-63
2023/12/16 00:26:17;;;;;;;51.88;28.70;;;;;;;;;;5014406;28;20026;-63
2023/12/16 00:28:42;;;;;;;45.70;27.00;;;;;;;;;;5013813;28;20033;-63
2023/12/16 00:31:09;;;;;;;42.45;22.42;;;;;;;;;;5013959;28;20539;-64
2023/12/16 00:33:34;;;;;;;47.97;27.55;;;;;;;;;;5013652;28;20038;-63
2023/12/16 00:35:59;;;;;;;40.42;21.58;;;;;;;;;;5013582;28;20044;-63
2023/12/16 00:38:25;;;;;;;38.38;21.13;;;;;;;;;;5014417;28;20502;-63
2023/12/16 00:40:50;;;;;;;48.42;26.27;;;;;;;;;;5013430;28;20456;-63
2023/12/16 00:43:15;;;;;;;43.97;25.42;;;;;;;;;;5013648;28;20044;-63
2023/12/16 00:45:41;;;;;;;46.40;26.27;;;;;;;;;;5014027;28;20128;-63
2023/12/16 00:48:06;;;;;;;44.95;25.38;;;;;;;;;;5013360;28;20038;-63
2023/12/16 00:50:32;;;;;;;47.55;26.35;;;;;;;;;;5013107;28;20030;-63
2023/12/16 00:52:58;;;;;;;46.80;25.65;;;;;;;;;;5016351;28;20026;-63
2023/12/16 00:55:24;;;;;;;47.33;25.85;;;;;;;;;;4998004;28;20085;-63
2023/12/16 00:57:53;;;;;;;44.30;24.85;;;;;;;;;;5016272;28;20650;-63
2023/12/16 01:00:18;;;;;;;43.55;25.10;;;;;;;;;;5014641;28;20042;-63
2023/12/16 01:02:44;;;;;;;44.85;25.10;;;;;;;;;;5014820;28;20026;-63
2023/12/16 01:05:09;;;;;;;34.28;19.92;;;;;;;;;;5013110;28;20503;-63
2023/12/16 01:07:34;;;;;;;43.78;23.00;;;;;;;;;;5013264;28;20037;-63
2023/12/16 01:10:00;;;;;;;47.45;25.73;;;;;;;;;;5014100;28;20034;-63
2023/12/16 01:12:25;;;;;;;45.72;25.98;;;;;;;;;;5015913;28;20034;-63
2023/12/16 01:14:50;;;;;;;35.15;21.13;;;;;;;;;;5013164;28;20034;-63
2023/12/16 01:17:16;;;;;;;44.00;24.90;;;;;;;;;;5014045;28;20492;-63
2023/12/16 01:19:43;;;;;;;46.83;24.48;;;;;;;;;;5012916;28;20083;-63
2023/12/16 01:22:08;;;;;;;44.30;24.65;;;;;;;;;;5014413;28;20037;-64
2023/12/16 01:24:36;;;;;;;45.97;24.17;;;;;;;;;;5014259;28;20036;-63
2023/12/16 01:27:03;;;;;;;38.85;23.02;;;;;;;;;;4995607;28;20026;-63
2023/12/16 01:29:28;;;;;;;43.13;23.17;;;;;;;;;;5014633;28;20065;-63
2023/12/16 01:31:53;;;;;;;35.83;20.42;;;;;;;;;;5012750;28;20504;-63
2023/12/16 01:34:19;;;;;;;43.08;24.23;;;;;;;;;;5015825;28;20088;-63
2023/12/16 01:36:44;;;;;;;42.10;23.38;;;;;;;;;;5012753;28;20053;-63
2023/12/16 01:39:09;;;;;;;37.47;20.88;;;;;;;;;;5012616;28;20030;-63
2023/12/16 01:41:35;;;;;;;39.42;21.67;;;;;;;;;;5012173;28;20373;-65
2023/12/16 01:44:00;;;;;;;45.13;23.23;;;;;;;;;;4976370;28;20145;-64
2023/12/16 01:46:26;;;;;;;40.47;22.50;;;;;;;;;;4993295;28;20092;-64
2023/12/16 01:48:51;;;;;;;43.83;24.58;;;;;;;;;;4993753;28;20030;-64
2023/12/16 01:51:17;;;;;;;41.45;23.35;;;;;;;;;;4994016;28;20065;-64
2023/12/16 01:53:42;;;;;;;38.17;21.98;;;;;;;;;;4991608;28;20034;-64
2023/12/16 01:56:08;;;;;;;33.20;18.83;;;;;;;;;;4993157;28;20046;-63
2023/12/16 01:58:37;;;;;;;41.55;24.05;;;;;;;;;;4994813;28;20050;-63
2023/12/16 02:01:03;;;;;;;39.22;23.23;;;;;;;;;;4994285;28;20041;-63
2023/12/16 02:03:29;;;;;;;41.45;21.35;;;;;;;;;;4994162;28;20034;-62
2023/12/16 02:05:55;;;;;;;34.90;20.23;;;;;;;;;;4992656;28;20038;-63
2023/12/16 02:08:21;;;;;;;35.55;21.05;;;;;;;;;;4992411;28;20057;-63
2023/12/16 02:10:46;;;;;;;33.63;19.08;;;;;;;;;;4992588;28;20037;-63
2023/12/16 02:13:12;;;;;;;33.38;18.38;;;;;;;;;;4995209;28;20038;-63
2023/12/16 02:15:37;;;;;;;33.47;19.40;;;;;;;;;;4992475;28;20046;-63
2023/12/16 02:18:03;;;;;;;34.58;18.35;;;;;;;;;;4993813;28;20041;-58
2023/12/16 02:20:28;;;;;;;38.45;18.98;;;;;;;;;;4994419;28;20023;-57
2023/12/16 02:22:54;;;;;;;37.10;21.23;;;;;;;;;;4994734;28;20038;-57
2023/12/16 02:25:19;;;;;;;35.40;21.95;;;;;;;;;;4995615;28;20030;-57
2023/12/16 02:27:45;;;;;;;40.40;22.80;;;;;;;;;;4992895;28;20040;-57
2023/12/16 02:30:11;;;;;;;40.97;22.35;;;;;;;;;;4994084;28;20065;-57
2023/12/16 02:32:36;;;;;;;40.60;22.88;;;;;;;;;;4994214;28;20030;-57
2023/12/16 02:35:02;;;;;;;31.92;18.90;;;;;;;;;;4992733;28;20365;-58
2023/12/16 02:37:28;;;;;;;40.75;22.08;;;;;;;;;;4992354;28;20034;-57
2023/12/16 02:39:54;;;;;;;37.30;21.58;;;;;;;;;;4991914;28;20358;-57
2023/12/16 02:42:19;;;;;;;39.80;22.33;;;;;;;;;;4991843;28;20092;-57
2023/12/16 02:44:45;;;;;;;36.85;20.95;;;;;;;;;;5001224;28;20133;-57
2023/12/16 02:47:10;;;;;;;40.72;22.50;;;;;;;;;;5011537;28;20042;-57
2023/12/16 02:49:35;;;;;;;37.67;20.77;;;;;;;;;;5011745;28;20020;-57
2023/12/16 02:52:01;;;;;;;37.67;21.25;;;;;;;;;;5014112;28;20499;-57
2023/12/16 02:54:27;;;;;;;38.38;21.02;;;;;;;;;;5014902;28;20681;-59
2023/12/16 02:56:53;;;;;;;39.67;21.90;;;;;;;;;;4994985;28;20033;-59
2023/12/16 02:59:18;;;;;;;35.63;20.83;;;;;;;;;;5015048;28;20801;-58
2023/12/16 03:01:43;;;;;;;39.70;21.35;;;;;;;;;;5011351;28;20089;-58
2023/12/16 03:04:09;;;;;;;38.50;21.50;;;;;;;;;;5011469;28;20076;-58
2023/12/16 03:06:35;;;;;;;35.20;19.85;;;;;;;;;;5014830;28;20026;-58
2023/12/16 03:09:01;;;;;;;36.97;21.02;;;;;;;;;;5012864;28;20042;-58
2023/12/16 03:11:26;;;;;;;30.83;18.05;;;;;;;;;;5012009;28;20034;-58
2023/12/16 03:13:52;;;;;;;34.00;19.90;;;;;;;;;;5012307;28;20033;-58
2023/12/16 03:16:19;;;;;;;41.30;23.65;;;;;;;;;;5011726;28;20037;-59
2023/12/16 03:18:44;;;;;;;34.78;21.73;;;;;;;;;;5012729;28;20065;-59
2023/12/16 03:21:09;;;;;;;34.85;20.35;;;;;;;;;;5014918;28;20029;-59
2023/12/16 03:23:35;;;;;;;33.80;20.40;;;;;;;;;;5012983;28;20033;-59
2023/12/16 03:26:01;;;;;;;31.88;18.63;;;;;;;;;;5013610;28;20427;-58
2023/12/16 03:28:26;;;;;;;33.58;20.08;;;;;;;;;;5013004;28;20038;-58
2023/12/16 03:30:51;;;;;;;31.25;19.17;;;;;;;;;;5015490;28;20052;-57
2023/12/16 03:33:17;;;;;;;35.78;20.75;;;;;;;;;;5011815;28;20800;-57
2023/12/16 03:35:42;;;;;;;35.08;19.95;;;;;;;;;;5013818;28;20030;-58
2023/12/16 03:38:07;;;;;;;28.63;17.05;;;;;;;;;;4995710;28;20030;-57
2023/12/16 03:40:33;;;;;;;34.80;20.35;;;;;;;;;;4996673;28;20069;-57
2023/12/16 03:42:58;;;;;;;32.08;19.15;;;;;;;;;;5012045;28;20033;-58
2023/12/16 03:45:24;;;;;;;32.70;18.90;;;;;;;;;;5014628;28;20034;-58
2023/12/16 03:47:50;;;;;;;34.22;19.02;;;;;;;;;;5014700;28;20466;-58
2023/12/16 03:50:15;;;;;;;33.67;19.92;;;;;;;;;;5014910;28;20475;-57
2023/12/16 03:52:41;;;;;;;31.35;18.40;;;;;;;;;;5014299;28;20034;-57
2023/12/16 03:55:06;;;;;;;30.80;18.92;;;;;;;;;;5015071;28;20042;-57
2023/12/16 03:57:33;;;;;;;33.65;18.60;;;;;;;;;;5014439;28;20045;-57
2023/12/16 03:59:59;;;;;;;30.48;17.65;;;;;;;;;;4996830;28;20038;-57
2023/12/16 04:02:24;;;;;;;28.20;16.67;;;;;;;;;;5014552;28;20487;-57
2023/12/16 04:04:50;;;;;;;29.02;16.83;;;;;;;;;;5014836;28;20026;-57
2023/12/16 04:07:15;;;;;;;29.50;17.25;;;;;;;;;;5016314;28;20053;-57
2023/12/16 04:09:40;;;;;;;27.25;16.95;;;;;;;;;;5014399;28;20583;-57
2023/12/16 04:12:06;;;;;;;28.83;18.50;;;;;;;;;;5014238;28;20025;-58
2023/12/16 04:14:35;;;;;;;27.30;17.27;;;;;;;;;;5014485;28;20040;-57
2023/12/16 04:17:02;;;;;;;31.20;17.88;;;;;;;;;;5014912;28;20026;-64
2023/12/16 04:19:27;;;;;;;26.33;16.75;;;;;;;;;;4998606;28;20100;-64
2023/12/16 04:21:53;;;;;;;30.65;18.08;;;;;;;;;;5015671;28;20034;-66
2023/12/16 04:24:19;;;;;;;30.42;17.08;;;;;;;;;;5016353;28;20046;-66
2023/12/16 04:26:45;;;;;;;26.83;16.30;;;;;;;;;;5014842;28;20025;-66
2023/12/16 04:29:10;;;;;;;28.00;16.90;;;;;;;;;;5015629;28;20361;-64
2023/12/16 04:31:38;;;;;;;28.25;17.95;;;;;;;;;;5014377;28;20040;-64
2023/12/16 04:34:06;;;;;;;28.08;18.15;;;;;;;;;;5016717;28;20033;-64
2023/12/16 04:36:31;;;;;;;26.23;17.38;;;;;;;;;;5014613;28;20041;-64
2023/12/16 04:38:56;;;;;;;31.02;17.95;;;;;;;;;;5013494;28;20041;-65
2023/12/16 04:41:22;;;;;;;27.38;17.80;;;;;;;;;;5016745;28;20065;-65
2023/12/16 04:43:47;;;;;;;29.73;18.42;;;;;;;;;;5015662;28;20103;-65
2023/12/16 04:46:13;;;;;;;26.83;17.42;;;;;;;;;;5014361;28;20041;-65
2023/12/16 04:48:38;;;;;;;28.58;17.65;;;;;;;;;;5017327;28;20118;-65
2023/12/16 04:51:04;;;;;;;25.98;16.75;;;;;;;;;;5015631;28;20041;-64
2023/12/16 04:53:31;;;;;;;26.52;17.15;;;;;;;;;;5013763;28;20042;-64
2023/12/16 04:55:56;;;;;;;28.15;17.60;;;;;;;;;;5013190;28;20030;-65
2023/12/16 04:58:21;;;;;;;24.75;17.38;;;;;;;;;;5013819;28;20423;-65
2023/12/16 05:00:47;;;;;;;26.30;16.80;;;;;;;;;;5013367;28;20407;-64
2023/12/16 05:03:12;;;;;;;22.83;16.33;;;;;;;;;;5012845;28;20026;-64
2023/12/16 05:05:37;;;;;;;23.60;16.52;;;;;;;;;;5013129;28;20472;-63
2023/12/16 05:08:03;;;;;;;27.08;16.88;;;;;;;;;;5013310;28;20119;-63
2023/12/16 05:10:28;;;;;;;25.75;16.98;;;;;;;;;;5013525;28;20092;-64
2023/12/16 05:12:54;;;;;;;22.80;14.23;;;;;;;;;;5013583;28;20543;-65
2023/12/16 05:15:21;;;;;;;22.80;15.10;;;;;;;;;;5017346;28;20045;-64
2023/12/16 05:17:46;;;;;;;20.05;13.95;;;;;;;;;;5014415;28;20126;-64
2023/12/16 05:20:12;;;;;;;18.83;12.60;;;;;;;;;;5015504;28;20144;-65
2023/12/16 05:22:37;;;;;;;24.45;13.38;;;;;;;;;;4997043;28;20034;-64
2023/12/16 05:25:03;;;;;;;21.23;13.95;;;;;;;;;;5016212;28;20017;-64
2023/12/16 05:27:29;;;;;;;19.63;13.63;;;;;;;;;;5017314;28;20037;-60
2023/12/16 05:29:55;;;;;;;19.77;14.32;;;;;;;;;;5016160;28;20050;-59
2023/12/16 05:32:21;;;;;;;21.80;15.43;;;;;;;;;;5015476;28;20034;-58
2023/12/16 05:34:46;;;;;;;23.83;15.60;;;;;;;;;;5016109;28;20468;-57
2023/12/16 05:37:11;;;;;;;19.17;13.73;;;;;;;;;;5017207;28;20062;-63
2023/12/16 05:39:37;;;;;;;20.83;14.85;;;;;;;;;;5017119;28;20388;-62
2023/12/16 05:42:02;;;;;;;21.67;15.50;;;;;;;;;;4999059;28;20022;-57
2023/12/16 05:44:28;;;;;;;21.65;14.40;;;;;;;;;;5015629;28;20056;-64
2023/12/16 05:46:53;;;;;;;19.92;14.05;;;;;;;;;;5017444;28;20384;-59
2023/12/16 05:49:18;;;;;;;21.80;15.25;;;;;;;;;;5015100;28;20539;-58
2023/12/16 05:51:44;;;;;;;18.25;14.18;;;;;;;;;;4997594;28;20032;-59
2023/12/16 05:54:09;;;;;;;19.35;14.55;;;;;;;;;;4996119;28;20052;-58
2023/12/16 05:56:35;;;;;;;20.13;15.15;;;;;;;;;;5015167;28;20068;-63
2023/12/16 05:59:00;;;;;;;20.00;13.95;;;;;;;;;;5015660;28;20030;-63
2023/12/16 06:01:25;;;;;;;17.48;13.20;;;;;;;;;;5015446;28;20030;-58
2023/12/16 06:03:51;;;;;;;21.40;14.35;;;;;;;;;;5014807;28;20108;-58
2023/12/16 06:06:16;;;;;;;18.08;13.40;;;;;;;;;;5014707;28;20034;-64
2023/12/16 06:08:43;;;;;;;17.45;11.95;;;;;;;;;;5015357;28;20022;-64
2023/12/16 06:11:10;;;;;;;19.20;13.70;;;;;;;;;;4997202;28;20076;-64
2023/12/16 06:13:37;;;;;;;21.40;14.27;;;;;;;;;;5014174;28;20512;-58
2023/12/16 06:16:02;;;;;;;16.95;11.98;;;;;;;;;;5014111;28;20036;-57
2023/12/16 06:18:29;;;;;;;17.65;13.07;;;;;;;;;;5014158;28;20045;-58
2023/12/16 06:20:54;;;;;;;20.60;15.73;;;;;;;;;;5014469;28;20030;-64
2023/12/16 06:23:19;;;;;;;24.30;16.17;;;;;;;;;;5014389;28;20041;-58
2023/12/16 06:25:45;;;;;;;22.38;16.25;;;;;;;;;;5014748;28;20026;-58
2023/12/16 06:28:10;;;;;;;23.58;15.88;;;;;;;;;;5016359;28;20030;-64
2023/12/16 06:30:35;;;;;;;23.20;16.00;;;;;;;;;;5013940;28;20033;-63
2023/12/16 06:33:01;;;;;;;23.27;18.23;;;;;;;;;;5014691;28;20037;-58
2023/12/16 06:35:26;;;;;;;26.95;18.65;;;;;;;;;;5014335;28;20030;-59
2023/12/16 06:37:51;;;;;;;32.63;22.95;;;;;;;;;;5014066;28;20025;-59
2023/12/16 06:40:17;;;;;;;37.92;26.38;;;;;;;;;;5013960;28;20076;-57
2023/12/16 06:42:43;;;;;;;41.13;26.48;;;;;;;;;;5014344;28;20116;-63
2023/12/16 06:45:11;;;;;;;29.88;20.80;;;;;;;;;;4977111;28;20077;-63
2023/12/16 06:47:37;;;;;;;29.05;21.75;;;;;;;;;;5013008;28;20026;-63
2023/12/16 06:50:03;;;;;;;31.83;20.42;;;;;;;;;;4996625;28;20056;-64
2023/12/16 06:52:30;;;;;;;26.58;18.75;;;;;;;;;;5013130;28;20022;-63
2023/12/16 06:54:56;;;;;;;26.55;18.67;;;;;;;;;;5013369;28;20021;-63
2023/12/16 06:57:21;;;;;;;52.70;25.95;;;;;;;;;;5012740;28;20449;-63
2023/12/16 06:59:47;;;;;;;36.53;21.58;;;;;;;;;;4995178;28;20084;-64
2023/12/16 07:02:13;;;;;;;38.45;22.20;;;;;;;;;;5012830;28;20092;-64
2023/12/16 07:04:38;;;;;;;67.28;29.83;;;;;;;;;;5012692;28;20045;-63
2023/12/16 07:07:04;;;;;;;56.95;26.13;;;;;;;;;;5012675;28;20033;-63
2023/12/16 07:09:30;;;;;;;48.00;25.05;;;;;;;;;;4995218;28;20056;-63
2023/12/16 07:11:56;;;;;;;41.88;26.70;;;;;;;;;;5012732;28;20037;-63
2023/12/16 07:14:23;;;;;;;35.70;25.52;;;;;;;;;;4995083;28;20026;-64
2023/12/16 07:16:49;;;;;;;36.25;24.67;;;;;;;;;;5013976;28;20064;-64
2023/12/16 07:19:14;;;;;;;29.27;18.83;;;;;;;;;;5014644;28;20057;-64
2023/12/16 07:21:41;;;;;;;36.10;23.30;;;;;;;;;;5016673;28;20712;-64
2023/12/16 07:24:06;;;;;;;35.60;23.63;;;;;;;;;;4999470;28;20030;-63
2023/12/16 07:26:32;;;;;;;30.88;21.45;;;;;;;;;;5017225;28;20018;-64
2023/12/16 07:29:00;;;;;;;21.02;13.82;;;;;;;;;;4999120;28;20391;-64
2023/12/16 07:31:26;;;;;;;26.98;17.50;;;;;;;;;;4998985;28;20080;-64
2023/12/16 07:33:53;;;;;;;23.98;16.73;;;;;;;;;;5016633;28;20030;-63
2023/12/16 07:36:18;;;;;;;33.13;21.45;;;;;;;;;;5016339;28;20040;-64
2023/12/16 07:38:45;;;;;;;35.47;22.55;;;;;;;;;;5016894;28;20030;-58
2023/12/16 07:41:10;;;;;;;30.15;20.67;;;;;;;;;;4998979;28;20387;-58
2023/12/16 07:43:37;;;;;;;23.60;15.57;;;;;;;;;;5014921;28;20038;-58
2023/12/16 07:46:04;;;;;;;23.90;15.70;;;;;;;;;;5015373;28;20535;-59
2023/12/16 07:48:29;;;;;;;21.95;14.82;;;;;;;;;;5013355;28;20523;-58
2023/12/16 07:50:54;;;;;;;26.52;18.45;;;;;;;;;;4997166;28;20059;-58
2023/12/16 07:53:21;;;;;;;28.30;18.73;;;;;;;;;;5015337;28;20026;-64
2023/12/16 07:55:48;;;;;;;19.67;14.50;;;;;;;;;;4997236;28;20030;-64
2023/12/16 07:58:14;;;;;;;23.30;15.63;;;;;;;;;;4980844;28;20476;-64
2023/12/16 08:00:39;;;;;;;19.25;13.00;;;;;;;;;;4997828;28;20064;-64
2023/12/16 08:03:05;;;;;;;19.02;12.80;;;;;;;;;;5015467;28;20037;-64
2023/12/16 08:05:32;;;;;;;19.63;12.43;;;;;;;;;;5016175;28;20034;-64
2023/12/16 08:07:58;;;;;;;16.67;11.20;;;;;;;;;;5015492;28;20145;-64
2023/12/16 08:10:24;;;;;;;25.40;14.52;;;;;;;;;;5015648;28;20036;-64
2023/12/16 08:12:50;;;;;;;27.95;15.45;;;;;;;;;;5015632;28;20494;-64
2023/12/16 08:15:15;;;;;;;34.05;18.15;;;;;;;;;;5014718;28;20022;-64
2023/12/16 08:17:41;;;;;;;20.55;12.35;;;;;;;;;;5015558;28;20480;-63
2023/12/16 08:20:07;;;;;;;19.33;13.02;;;;;;;;;;4997152;28;20026;-64
2023/12/16 08:22:39;;;;;;;21.40;13.35;;;;;;;;;;5015008;28;20048;-64
2023/12/16 08:25:05;;;;;;;34.15;20.83;;;;;;;;;;4997615;28;20506;-64
2023/12/16 08:27:31;;;;;;;39.63;25.02;;;;;;;;;;5015348;28;20026;-64
2023/12/16 08:29:56;;;;;;;24.80;17.55;;;;;;;;;;5015213;28;20030;-64
2023/12/16 08:32:22;;;;;;;18.73;12.48;;;;;;;;;;4996876;28;20574;-58
2023/12/16 08:34:48;;;;;;;19.25;13.95;;;;;;;;;;5013494;28;20037;-58
2023/12/16 08:37:15;;;;;;;20.70;14.15;;;;;;;;;;4993934;28;20439;-58
2023/12/16 08:39:40;;;;;;;20.67;13.18;;;;;;;;;;5012019;28;20041;-58
2023/12/16 08:42:05;;;;;;;18.45;13.98;;;;;;;;;;5010990;28;20518;-58
2023/12/16 08:44:31;;;;;;;15.70;12.25;;;;;;;;;;5011723;28;20068;-58
2023/12/16 08:46:56;;;;;;;17.20;12.63;;;;;;;;;;5011782;28;20030;-58
2023/12/16 08:49:21;;;;;;;16.40;11.85;;;;;;;;;;5011741;28;20483;-58
2023/12/16 08:51:48;;;;;;;19.33;14.45;;;;;;;;;;5012852;28;20495;-58
2023/12/16 08:54:14;;;;;;;19.40;13.55;;;;;;;;;;4995428;28;20080;-58
2023/12/16 08:56:39;;;;;;;22.33;14.30;;;;;;;;;;5013343;28;20042;-58
2023/12/16 08:59:05;;;;;;;23.02;14.90;;;;;;;;;;5012300;28;20040;-58
2023/12/16 09:01:32;;;;;;;21.33;13.43;;;;;;;;;;4995833;28;20092;-58
2023/12/16 09:03:57;;;;;;;24.90;15.73;;;;;;;;;;5012618;28;20394;-58
2023/12/16 09:09:43;;;;;;;22.55;13.80;;;;;;;;;;4863651;23;20491;-72
2023/12/16 09:12:09;;;;;;;19.60;13.52;;;;;;;;;;4903009;28;20657;-73
2023/12/16 09:14:35;;;;;;;35.38;21.00;;;;;;;;;;4970426;28;20030;-73
2023/12/16 09:17:00;;;;;;;34.25;20.52;;;;;;;;;;5010238;28;20053;-73
2023/12/16 09:19:25;;;;;;;33.53;19.08;;;;;;;;;;5011523;28;20022;-73
2023/12/16 09:21:51;;;;;;;34.72;19.95;;;;;;;;;;5011007;28;20072;-73
2023/12/16 09:24:17;;;;;;;28.52;17.38;;;;;;;;;;5011072;28;20040;-74
2023/12/16 09:26:43;;;;;;;28.17;16.98;;;;;;;;;;5010622;28;20105;-74
2023/12/16 09:29:09;;;;;;;30.77;17.58;;;;;;;;;;5011603;28;20164;-74
2023/12/16 09:31:34;;;;;;;49.95;26.90;;;;;;;;;;5011402;28;20387;-73
2023/12/16 09:33:59;;;;;;;41.45;22.08;;;;;;;;;;4979885;28;20049;-74
2023/12/16 09:36:27;;;;;;;28.20;16.42;;;;;;;;;;5013962;28;20108;-73
2023/12/16 09:38:53;;;;;;;25.80;16.67;;;;;;;;;;5013642;28;20120;-74
2023/12/16 09:41:18;;;;;;;24.20;15.93;;;;;;;;;;5013680;28;20034;-73
2023/12/16 09:43:46;;;;;;;16.55;11.45;;;;;;;;;;4996684;28;20036;-73
2023/12/16 09:46:11;;;;;;;20.23;12.32;;;;;;;;;;4995883;28;20037;-74
2023/12/16 09:48:38;;;;;;;22.90;15.40;;;;;;;;;;5013665;28;20080;-74
2023/12/16 09:51:03;;;;;;;28.63;17.23;;;;;;;;;;5013319;28;20079;-74
2023/12/16 09:53:28;;;;;;;29.67;18.80;;;;;;;;;;5008700;28;20040;-75
2023/12/16 09:55:54;;;;;;;32.40;20.27;;;;;;;;;;5000851;28;20029;-74
2023/12/16 09:58:19;;;;;;;28.85;17.40;;;;;;;;;;4999339;28;20543;-73
2023/12/16 10:00:45;;;;;;;20.88;13.98;;;;;;;;;;5013641;28;20033;-67
2023/12/16 10:03:12;;;;;;;23.48;14.07;;;;;;;;;;5013781;28;20033;-71
2023/12/16 10:05:38;;;;;;;20.35;12.68;;;;;;;;;;5014164;28;20491;-66
2023/12/16 10:08:05;;;;;;;20.55;13.25;;;;;;;;;;4995871;28;20046;-67
2023/12/16 10:10:30;;;;;;;23.42;13.85;;;;;;;;;;5013757;28;20034;-67
2023/12/16 10:13:00;;;;;;;21.75;13.93;;;;;;;;;;5013682;28;20494;-68
2023/12/16 10:15:30;;;;;;;16.80;11.18;;;;;;;;;;4993618;28;20337;-67
2023/12/16 10:17:55;;;;;;;20.27;12.73;;;;;;;;;;5012621;28;20030;-68
2023/12/16 10:20:21;;;;;;;19.13;12.82;;;;;;;;;;5013049;28;20108;-65
2023/12/16 10:22:46;;;;;;;18.40;11.70;;;;;;;;;;5013305;28;20452;-67
2023/12/16 10:25:13;;;;;;;23.15;13.77;;;;;;;;;;5013289;28;20022;-67
2023/12/16 10:27:41;;;;;;;27.13;15.15;;;;;;;;;;5013579;28;20404;-65
2023/12/16 10:30:07;;;;;;;20.17;13.40;;;;;;;;;;4995999;28;20419;-66
2023/12/16 10:32:33;;;;;;;23.98;14.63;;;;;;;;;;5013445;28;20033;-67
2023/12/16 10:34:59;;;;;;;24.48;14.32;;;;;;;;;;5012935;28;20380;-67
2023/12/16 10:37:25;;;;;;;23.30;14.65;;;;;;;;;;5013029;28;20073;-68
2023/12/16 10:39:50;;;;;;;27.38;15.77;;;;;;;;;;5013899;28;20057;-73
2023/12/16 10:42:15;;;;;;;24.38;16.13;;;;;;;;;;5013817;28;20041;-68
2023/12/16 10:44:41;;;;;;;25.98;15.90;;;;;;;;;;5013778;28;20211;-73
2023/12/16 10:47:08;;;;;;;28.02;16.10;;;;;;;;;;5013805;28;20443;-67
2023/12/16 10:49:34;;;;;;;25.05;15.50;;;;;;;;;;4996364;28;20120;-67
2023/12/16 10:52:04;;;;;;;25.35;15.10;;;;;;;;;;4995790;28;20117;-67
2023/12/16 10:54:32;;;;;;;27.50;16.95;;;;;;;;;;5013296;28;20026;-67
2023/12/16 10:57:10;;;;;;;24.55;14.65;;;;;;;;;;5013500;28;20026;-67
2023/12/16 10:59:39;;;;;;;21.02;13.13;;;;;;;;;;5013617;28;20361;-67
2023/12/16 11:02:11;;;;;;;20.50;12.63;;;;;;;;;;4994110;28;20030;-66
2023/12/16 11:04:37;;;;;;;20.60;12.63;;;;;;;;;;5010622;28;20080;-66
2023/12/16 11:07:06;;;;;;;19.40;12.38;;;;;;;;;;5010078;28;20034;-68
2023/12/16 11:09:32;;;;;;;22.33;13.57;;;;;;;;;;4989696;28;20070;-68
2023/12/16 11:12:00;;;;;;;21.77;12.52;;;;;;;;;;4991307;28;20034;-69
2023/12/16 11:14:26;;;;;;;17.27;10.95;;;;;;;;;;4990158;28;20470;-67
2023/12/16 11:16:54;;;;;;;20.77;13.27;;;;;;;;;;4989952;28;20089;-68
2023/12/16 11:19:21;;;;;;;19.05;12.23;;;;;;;;;;4991352;28;20034;-68
2023/12/16 11:21:46;;;;;;;20.80;13.07;;;;;;;;;;4993423;28;20050;-73
2023/12/16 11:24:12;;;;;;;22.25;13.98;;;;;;;;;;4993717;28;20026;-73
2023/12/16 11:26:37;;;;;;;21.95;13.93;;;;;;;;;;4993619;28;20045;-73
2023/12/16 11:29:03;;;;;;;22.35;12.57;;;;;;;;;;4992604;28;20037;-74
2023/12/16 11:31:29;;;;;;;24.95;16.23;;;;;;;;;;4976189;28;20120;-73
2023/12/16 11:33:54;;;;;;;23.58;14.15;;;;;;;;;;4993843;28;20403;-73
2023/12/16 11:36:40;;;;;;;20.45;12.88;;;;;;;;;;4993762;28;20030;-73
2023/12/16 11:39:26;;;;;;;19.38;12.38;;;;;;;;;;4992169;28;20058;-74
2023/12/16 11:41:51;;;;;;;26.35;13.88;;;;;;;;;;4993643;28;20033;-73
2023/12/16 11:44:17;;;;;;;24.55;14.23;;;;;;;;;;4993079;28;20022;-73
2023/12/16 11:46:43;;;;;;;22.52;13.07;;;;;;;;;;4990950;28;20030;-73
2023/12/16 11:49:10;;;;;;;20.77;13.43;;;;;;;;;;4990943;28;20038;-73
2023/12/16 11:51:38;;;;;;;20.63;11.95;;;;;;;;;;4990351;28;20262;-73
2023/12/16 11:54:04;;;;;;;24.88;14.50;;;;;;;;;;4991270;28;20045;-74
2023/12/16 11:56:29;;;;;;;20.15;12.73;;;;;;;;;;4989095;28;20038;-74
2023/12/16 11:58:58;;;;;;;24.13;14.98;;;;;;;;;;4988790;28;20089;-74
2023/12/16 12:01:25;;;;;;;24.35;14.68;;;;;;;;;;4979470;28;20037;-74
2023/12/16 12:03:51;;;;;;;20.80;12.75;;;;;;;;;;4988332;28;20027;-73
2023/12/16 12:06:17;;;;;;;17.08;11.95;;;;;;;;;;4991753;28;20477;-73
2023/12/16 12:08:44;;;;;;;20.92;13.10;;;;;;;;;;5003409;28;20061;-73
2023/12/16 12:11:10;;;;;;;21.42;14.50;;;;;;;;;;5015152;28;20042;-74
2023/12/16 12:13:35;;;;;;;29.48;16.75;;;;;;;;;;5013963;28;20087;-74
2023/12/16 12:16:00;;;;;;;22.75;14.52;;;;;;;;;;4994501;28;20522;-74
2023/12/16 12:18:27;;;;;;;23.75;14.85;;;;;;;;;;5011475;28;20100;-74
2023/12/16 12:20:54;;;;;;;22.60;13.63;;;;;;;;;;4994588;28;20064;-74
2023/12/16 12:23:19;;;;;;;24.45;15.15;;;;;;;;;;4994512;28;20029;-73
2023/12/16 12:25:52;;;;;;;19.75;13.48;;;;;;;;;;4993986;28;20484;-74
2023/12/16 12:28:17;;;;;;;20.38;12.52;;;;;;;;;;5011875;28;20488;-73
2023/12/16 12:30:43;;;;;;;16.95;11.38;;;;;;;;;;5013147;28;20060;-74
2023/12/16 12:33:09;;;;;;;16.20;11.18;;;;;;;;;;4996581;28;20065;-73
2023/12/16 12:35:34;;;;;;;18.67;11.23;;;;;;;;;;4997840;28;20018;-74
2023/12/16 12:38:00;;;;;;;14.35;10.10;;;;;;;;;;4997448;28;20038;-74
2023/12/16 12:40:26;;;;;;;14.27;10.15;;;;;;;;;;5015006;28;20034;-74
2023/12/16 12:42:55;;;;;;;14.75;9.75;;;;;;;;;;5015126;28;20026;-73
2023/12/16 12:45:25;;;;;;;15.95;10.05;;;;;;;;;;5013774;28;20065;-69
2023/12/16 12:47:54;;;;;;;12.38;9.43;;;;;;;;;;5015296;28;20137;-75
2023/12/16 12:50:23;;;;;;;17.52;11.50;;;;;;;;;;5014813;28;20030;-73
2023/12/16 12:52:48;;;;;;;16.40;10.75;;;;;;;;;;5014690;28;20551;-73
2023/12/16 12:55:13;;;;;;;17.17;10.50;;;;;;;;;;5014942;28;20102;-73
2023/12/16 12:57:39;;;;;;;16.98;11.32;;;;;;;;;;5014492;28;20396;-73
2023/12/16 13:00:04;;;;;;;19.15;11.23;;;;;;;;;;5014525;28;20030;-73
2023/12/16 13:02:30;;;;;;;19.55;12.75;;;;;;;;;;5014884;28;20148;-73
2023/12/16 13:04:56;;;;;;;19.50;11.98;;;;;;;;;;4996744;28;20080;-73
2023/12/16 13:07:21;;;;;;;21.98;12.98;;;;;;;;;;5013994;28;20483;-74
2023/12/16 13:09:47;;;;;;;22.13;13.05;;;;;;;;;;4996672;28;20116;-73
2023/12/16 13:12:13;;;;;;;18.60;10.50;;;;;;;;;;5014130;28;20034;-73
2023/12/16 13:14:43;;;;;;;21.05;12.30;;;;;;;;;;4996482;28;20125;-73
2023/12/16 13:17:08;;;;;;;20.13;12.48;;;;;;;;;;5013140;28;20107;-73
2023/12/16 13:19:33;;;;;;;17.30;11.40;;;;;;;;;;5014174;28;20057;-73
2023/12/16 13:21:59;;;;;;;21.08;12.05;;;;;;;;;;4996614;28;20065;-73
2023/12/16 13:24:26;;;;;;;17.17;11.23;;;;;;;;;;5014005;28;20018;-73
2023/12/16 13:26:52;;;;;;;17.98;10.15;;;;;;;;;;5013386;28;20021;-74
2023/12/16 13:29:20;;;;;;;14.57;9.73;;;;;;;;;;4996293;28;20039;-73
2023/12/16 13:31:45;;;;;;;16.85;10.70;;;;;;;;;;5013771;28;20029;-73
2023/12/16 13:34:10;;;;;;;15.93;10.52;;;;;;;;;;4996322;28;20399;-73
2023/12/16 13:36:36;;;;;;;17.13;10.18;;;;;;;;;;5013918;28;20060;-72
2023/12/16 13:39:01;;;;;;;15.73;9.88;;;;;;;;;;4996094;28;20040;-66
2023/12/16 13:41:26;;;;;;;16.55;10.52;;;;;;;;;;5013720;28;20030;-69
2023/12/16 13:43:53;;;;;;;14.10;9.70;;;;;;;;;;4996504;28;20022;-66
2023/12/16 13:46:18;;;;;;;14.18;9.32;;;;;;;;;;5011864;28;20472;-68
2023/12/16 13:48:44;;;;;;;15.65;10.23;;;;;;;;;;5012438;28;20034;-67
2023/12/16 13:51:09;;;;;;;15.68;10.15;;;;;;;;;;5012184;28;20030;-68
2023/12/16 13:53:35;;;;;;;14.95;10.35;;;;;;;;;;5011836;28;20037;-68
2023/12/16 13:56:00;;;;;;;17.95;9.88;;;;;;;;;;5011984;28;20026;-68
2023/12/16 13:58:26;;;;;;;24.80;15.75;;;;;;;;;;5012011;28;20034;-69
2023/12/16 14:00:51;;;;;;;27.90;17.92;;;;;;;;;;5012374;28;20052;-68
2023/12/16 14:03:16;;;;;;;32.65;21.85;;;;;;;;;;4996105;28;20034;-67
2023/12/16 14:05:42;;;;;;;31.65;19.65;;;;;;;;;;4994944;28;20375;-66
2023/12/16 14:08:08;;;;;;;30.33;19.73;;;;;;;;;;5013006;28;20428;-68
2023/12/16 14:10:36;;;;;;;26.80;17.48;;;;;;;;;;5013307;28;20030;-66
2023/12/16 14:13:01;;;;;;;27.98;17.55;;;;;;;;;;4995834;28;20476;-67